Marcum, Kentucky
Current Conditions -  °F | °C
As of 2:27 PM on Saturday 25 Oct 2014 (Local Time) from KLOZ Reporting Station
Overcast Overcast  
Wind Chill: 66°   Ceiling: 3800
Heat Index: 66°   Visibility: 10mi
Dew Point: 49°   Wind: 6mph
Humidity: 54%   Direction: 210°SSW
Pressure: 30.02"   Gusts: NA
Location:  37.1101°N, 83.7537°W
Report Text: KLOZ 251827Z AUTO 21005KT 10SM SCT028 OVC038 19/09 A3002 RMK AO2 T01890094
Loading
Personal Weather Stations






























Interactive Weather Map
Tropical Storm Tracking
New forecast layout! Learn more

10-Day Weather Forecast

Advertisements
Track Severe Weather on mobile